Time;durP1;ratioP1;P1;durP2;ratioP2;P2;SDS_P1;SDS_P2;PMS_P1;PMS_P2;Temp;Humidity;BMP_temperature;BMP_pressure;BME280_temperature;BME280_humidity;BME280_pressure;Samples;Min_cycle;Max_cycle;Signal;HPM_P1;HPM_P2
2021/07/22 00:02:05;;;;;;;1.50;0.90;;;18.10;98.20;;;;;;5001120;28;20527;-77
2021/07/22 00:08:00;;;;;;;1.50;0.90;;;18.10;98.20;;;;;;5008029;28;20509;-77
2021/07/22 00:10:26;;;;;;;1.50;1.00;;;18.10;98.20;;;;;;5010913;28;20559;-78
2021/07/22 00:12:53;;;;;;;1.50;0.90;;;18.00;98.20;;;;;;5000600;28;20527;-77
2021/07/22 00:15:20;;;;;;;1.50;1.00;;;18.00;98.20;;;;;;5011992;28;20916;-77
2021/07/22 00:17:47;;;;;;;1.50;0.90;;;18.00;98.20;;;;;;5002247;28;20487;-78
2021/07/22 00:20:14;;;;;;;1.50;1.00;;;17.90;98.20;;;;;;5017832;28;20463;-78
2021/07/22 00:22:41;;;;;;;1.50;1.00;;;17.90;98.20;;;;;;5001136;28;20477;-77
2021/07/22 00:25:10;;;;;;;1.50;0.90;;;17.90;98.20;;;;;;5019547;28;20478;-77
2021/07/22 00:27:37;;;;;;;1.53;0.90;;;17.90;98.20;;;;;;5016614;28;20480;-79
2021/07/22 00:30:04;;;;;;;1.50;0.90;;;17.90;98.20;;;;;;5016681;28;20470;-78
2021/07/22 00:32:31;;;;;;;1.50;1.00;;;17.90;98.20;;;;;;5014181;28;21053;-78
2021/07/22 00:34:58;;;;;;;1.50;0.90;;;17.80;98.20;;;;;;5012257;28;20468;-77
2021/07/22 00:37:25;;;;;;;1.50;0.90;;;17.80;98.20;;;;;;5015274;28;20570;-79
2021/07/22 00:39:51;;;;;;;1.50;0.90;;;17.80;98.20;;;;;;5012782;28;20467;-78
2021/07/22 00:42:20;;;;;;;1.50;0.90;;;17.80;98.20;;;;;;5012152;28;20474;-80
2021/07/22 00:44:46;;;;;;;1.50;0.90;;;17.80;98.20;;;;;;5014459;28;20478;-79
2021/07/22 00:47:13;;;;;;;1.50;0.90;;;17.70;98.20;;;;;;5003152;28;20484;-77
2021/07/22 00:49:40;;;;;;;1.50;1.00;;;17.70;98.20;;;;;;5010627;28;20460;-77
2021/07/22 00:52:07;;;;;;;1.50;0.90;;;17.70;98.20;;;;;;5012148;28;20485;-78
2021/07/22 00:54:33;;;;;;;1.50;1.00;;;17.70;98.20;;;;;;5010572;28;20471;-77
2021/07/22 00:57:00;;;;;;;1.50;1.00;;;17.70;98.20;;;;;;5009996;28;20483;-76
2021/07/22 00:59:28;;;;;;;1.50;1.00;;;17.70;98.20;;;;;;5005602;28;20461;-79
2021/07/22 01:01:55;;;;;;;1.50;1.00;;;17.60;98.20;;;;;;5010368;28;20470;-77
2021/07/22 01:04:22;;;;;;;1.50;1.00;;;17.60;98.20;;;;;;5009778;28;20480;-77
2021/07/22 01:06:48;;;;;;;1.50;1.00;;;17.60;98.20;;;;;;5008613;28;20609;-78
2021/07/22 01:09:15;;;;;;;1.50;1.00;;;17.60;98.20;;;;;;5010662;28;20460;-77
2021/07/22 01:11:42;;;;;;;1.50;1.00;;;17.50;98.20;;;;;;4999198;28;20488;-76
2021/07/22 01:14:08;;;;;;;1.50;1.00;;;17.50;98.20;;;;;;5011583;28;20494;-77
2021/07/22 01:16:37;;;;;;;1.50;0.90;;;17.50;98.20;;;;;;4999903;28;20483;-77
2021/07/22 01:19:05;;;;;;;1.50;1.03;;;17.50;98.20;;;;;;5012065;28;20471;-77
2021/07/22 01:21:33;;;;;;;1.50;1.00;;;17.40;98.20;;;;;;5001317;28;21014;-76
2021/07/22 01:24:00;;;;;;;1.50;0.90;;;17.40;98.20;;;;;;5014100;28;20491;-77
2021/07/22 01:26:26;;;;;;;1.50;0.90;;;17.40;98.20;;;;;;5002762;28;21116;-77
2021/07/22 01:28:53;;;;;;;1.50;0.90;;;17.40;98.20;;;;;;5017744;28;20468;-77
2021/07/22 01:31:24;;;;;;;1.50;0.93;;;17.30;98.20;;;;;;5002091;28;20499;-77
2021/07/22 01:33:51;;;;;;;1.50;1.00;;;17.30;98.20;;;;;;5020925;28;20464;-79
2021/07/22 01:36:22;;;;;;;1.53;1.00;;;17.30;98.20;;;;;;5003059;28;20488;-75
2021/07/22 01:38:51;;;;;;;1.50;0.90;;;17.30;98.20;;;;;;5004308;28;20807;-79
2021/07/22 01:41:18;;;;;;;1.50;1.00;;;17.30;98.20;;;;;;4996997;28;20468;-78
2021/07/22 01:43:44;;;;;;;1.50;1.00;;;17.30;98.20;;;;;;5010396;28;20640;-77
2021/07/22 01:46:11;;;;;;;1.50;0.90;;;17.30;98.20;;;;;;4997582;28;20479;-77
2021/07/22 01:48:38;;;;;;;1.50;1.00;;;17.20;98.20;;;;;;5016025;28;20468;-76
2021/07/22 01:51:06;;;;;;;1.50;1.00;;;17.20;98.20;;;;;;4992499;28;20979;-78
2021/07/22 01:53:33;;;;;;;1.50;0.97;;;17.20;98.20;;;;;;5016025;28;20462;-78
2021/07/22 01:56:04;;;;;;;1.50;0.90;;;17.20;98.20;;;;;;4998835;28;21118;-78
2021/07/22 01:58:30;;;;;;;1.50;1.00;;;17.20;98.20;;;;;;5021350;28;20479;-78
2021/07/22 02:00:57;;;;;;;1.50;1.00;;;17.20;98.20;;;;;;4996392;28;20472;-77
2021/07/22 02:03:24;;;;;;;1.50;1.00;;;17.20;98.20;;;;;;5009027;28;20500;-78
2021/07/22 02:05:51;;;;;;;1.50;1.00;;;17.10;98.20;;;;;;5001620;28;20481;-77
2021/07/22 02:08:17;;;;;;;1.50;0.90;;;17.10;98.20;;;;;;5021264;28;20457;-78
2021/07/22 02:10:44;;;;;;;1.50;1.00;;;17.10;98.20;;;;;;5004892;28;20467;-77
2021/07/22 02:13:12;;;;;;;1.50;1.00;;;17.10;98.20;;;;;;5005063;28;20487;-77
2021/07/22 02:15:39;;;;;;;1.53;1.00;;;17.00;98.20;;;;;;5008012;28;20487;-78
2021/07/22 02:18:06;;;;;;;1.50;0.90;;;17.00;98.20;;;;;;5013797;28;20888;-76
2021/07/22 02:20:32;;;;;;;1.53;1.00;;;17.00;98.20;;;;;;5009312;28;20464;-76
2021/07/22 02:22:59;;;;;;;1.50;0.90;;;17.00;98.20;;;;;;5009347;28;21001;-77
2021/07/22 02:25:26;;;;;;;1.50;1.00;;;17.00;98.20;;;;;;5004518;28;20468;-77
2021/07/22 02:27:52;;;;;;;1.50;0.90;;;17.00;98.20;;;;;;4998506;28;20480;-77
2021/07/22 02:30:21;;;;;;;1.50;0.90;;;17.00;98.20;;;;;;5007035;28;20464;-76
2021/07/22 02:32:47;;;;;;;1.50;1.00;;;17.00;98.20;;;;;;4991626;28;20511;-77
2021/07/22 02:35:14;;;;;;;1.50;1.00;;;17.00;98.20;;;;;;5009037;28;20463;-76
2021/07/22 02:37:41;;;;;;;1.50;0.90;;;17.00;98.20;;;;;;5005220;28;20486;-76
2021/07/22 02:40:08;;;;;;;1.50;0.97;;;17.00;98.20;;;;;;5006408;28;20479;-77
2021/07/22 02:42:36;;;;;;;1.50;0.90;;;16.90;98.20;;;;;;4999759;28;20487;-76
2021/07/22 02:45:03;;;;;;;1.50;1.00;;;16.90;98.20;;;;;;5005142;28;20487;-76
2021/07/22 02:47:31;;;;;;;1.50;0.90;;;16.90;98.20;;;;;;4999532;28;20513;-78
2021/07/22 02:49:58;;;;;;;1.50;1.00;;;16.90;98.20;;;;;;5000824;28;20453;-77
2021/07/22 02:52:25;;;;;;;1.50;1.00;;;16.90;98.20;;;;;;5006130;28;20551;-76
2021/07/22 02:54:52;;;;;;;1.50;0.90;;;16.90;98.20;;;;;;5011911;28;20975;-77
2021/07/22 02:57:19;;;;;;;1.50;1.00;;;16.90;98.20;;;;;;5000324;28;20476;-77
2021/07/22 02:59:45;;;;;;;1.50;1.00;;;16.90;98.20;;;;;;5009926;28;20465;-78
2021/07/22 03:02:12;;;;;;;1.50;0.90;;;16.90;98.20;;;;;;5010641;28;20567;-77
2021/07/22 03:04:40;;;;;;;1.53;0.97;;;16.80;98.20;;;;;;5015839;28;20488;-76
2021/07/22 03:07:07;;;;;;;1.50;1.00;;;16.80;98.20;;;;;;5004747;28;20495;-77
2021/07/22 03:09:34;;;;;;;1.50;1.00;;;16.80;98.20;;;;;;5014146;28;20852;-77
2021/07/22 03:12:00;;;;;;;1.50;1.00;;;16.80;98.20;;;;;;5009245;28;20541;-77
2021/07/22 03:14:27;;;;;;;1.50;1.00;;;16.80;98.20;;;;;;5005016;28;20461;-76
2021/07/22 03:16:54;;;;;;;1.50;0.90;;;16.70;98.20;;;;;;5008520;28;20886;-77
2021/07/22 03:19:21;;;;;;;1.50;0.90;;;16.70;98.20;;;;;;5005016;28;20478;-78
2021/07/22 03:21:50;;;;;;;1.50;1.00;;;16.70;98.20;;;;;;4996260;28;20483;-77
2021/07/22 03:24:16;;;;;;;1.50;1.00;;;16.70;98.20;;;;;;5005786;28;21048;-77
2021/07/22 03:26:43;;;;;;;1.50;1.00;;;16.70;98.20;;;;;;5005122;28;20514;-77
2021/07/22 03:29:10;;;;;;;1.50;1.00;;;16.60;98.20;;;;;;5012340;28;20460;-77
2021/07/22 03:31:37;;;;;;;1.50;1.00;;;16.60;98.20;;;;;;4997641;28;20488;-77
2021/07/22 03:34:03;;;;;;;1.50;1.00;;;16.60;98.20;;;;;;5012830;28;20820;-79
2021/07/22 03:36:32;;;;;;;1.50;1.00;;;16.60;98.20;;;;;;5000443;28;20557;-77
2021/07/22 03:39:00;;;;;;;1.50;0.93;;;16.60;98.20;;;;;;5008948;28;20475;-77
2021/07/22 03:41:27;;;;;;;1.53;1.00;;;16.60;98.20;;;;;;4999063;28;20491;-77
2021/07/22 03:43:54;;;;;;;1.50;1.00;;;16.60;98.20;;;;;;5008860;28;20495;-77
2021/07/22 03:46:22;;;;;;;1.50;1.00;;;16.50;98.20;;;;;;4999188;28;20484;-78
2021/07/22 03:48:49;;;;;;;1.50;1.00;;;16.50;98.20;;;;;;5005310;28;20857;-78
2021/07/22 03:51:15;;;;;;;1.50;1.00;;;16.50;98.20;;;;;;4997283;28;20480;-77
2021/07/22 03:53:42;;;;;;;1.50;0.90;;;16.50;98.20;;;;;;5008043;28;20465;-77
2021/07/22 03:56:10;;;;;;;1.50;1.10;;;16.50;98.20;;;;;;5000429;28;20826;-76
2021/07/22 03:58:37;;;;;;;1.50;1.00;;;16.50;98.20;;;;;;5014259;28;20968;-78
2021/07/22 04:01:06;;;;;;;1.50;1.00;;;16.50;98.20;;;;;;5002433;28;20468;-76
2021/07/22 04:03:35;;;;;;;1.50;1.00;;;16.50;98.20;;;;;;5015485;28;20952;-79
2021/07/22 04:06:03;;;;;;;1.50;1.00;;;16.60;98.20;;;;;;4994157;28;20915;-79
2021/07/22 04:08:29;;;;;;;1.50;0.90;;;16.60;98.20;;;;;;5012302;28;20856;-77
2021/07/22 04:10:56;;;;;;;1.57;1.00;;;16.60;98.20;;;;;;4996399;28;20456;-77
2021/07/22 04:13:24;;;;;;;1.50;1.00;;;16.60;98.20;;;;;;5015833;28;20456;-79
2021/07/22 04:15:51;;;;;;;1.50;0.90;;;16.60;98.20;;;;;;4995827;28;20484;-78
2021/07/22 04:18:18;;;;;;;1.50;0.90;;;16.70;98.20;;;;;;5012727;28;20723;-77
2021/07/22 04:20:44;;;;;;;1.53;1.00;;;16.70;98.20;;;;;;5007986;28;20464;-79
2021/07/22 04:23:11;;;;;;;1.50;0.90;;;16.80;98.20;;;;;;5011959;28;20486;-77
2021/07/22 04:25:38;;;;;;;1.50;1.00;;;16.80;98.20;;;;;;5011820;28;20584;-77
2021/07/22 04:28:05;;;;;;;1.50;1.00;;;16.80;98.20;;;;;;5009244;28;20484;-76
2021/07/22 04:30:33;;;;;;;1.50;1.00;;;16.80;98.20;;;;;;5007974;28;20468;-77
2021/07/22 04:33:00;;;;;;;1.50;1.00;;;16.90;98.20;;;;;;5013656;28;20486;-76
2021/07/22 04:35:26;;;;;;;1.50;0.90;;;16.90;98.20;;;;;;5006221;28;20838;-79
2021/07/22 04:37:53;;;;;;;1.50;0.97;;;16.90;98.20;;;;;;4999238;28;20480;-77
2021/07/22 04:40:20;;;;;;;1.50;1.00;;;16.90;98.20;;;;;;5005575;28;20947;-77
2021/07/22 04:42:47;;;;;;;1.50;0.93;;;17.00;98.20;;;;;;5008926;28;20484;-76
2021/07/22 04:45:14;;;;;;;1.50;1.00;;;17.00;98.20;;;;;;5006801;28;20515;-77
2021/07/22 04:47:42;;;;;;;1.50;0.90;;;17.10;98.20;;;;;;5006208;28;20488;-77
2021/07/22 04:50:09;;;;;;;1.50;1.00;;;17.10;98.20;;;;;;5002864;28;20497;-78
2021/07/22 04:52:36;;;;;;;1.50;1.00;;;17.20;98.20;;;;;;5002218;28;20487;-77
2021/07/22 04:55:03;;;;;;;1.50;1.00;;;17.20;98.20;;;;;;5006420;28;20469;-76
2021/07/22 04:57:30;;;;;;;1.50;1.00;;;17.30;98.20;;;;;;4992603;28;20506;-77
2021/07/22 04:59:56;;;;;;;1.50;1.00;;;17.30;98.20;;;;;;5005575;28;20471;-77
2021/07/22 05:02:23;;;;;;;1.50;1.00;;;17.40;98.20;;;;;;4999443;28;20479;-77
2021/07/22 05:04:51;;;;;;;1.50;1.00;;;17.60;98.20;;;;;;5010528;28;20502;-79
2021/07/22 05:07:18;;;;;;;1.50;1.00;;;17.70;98.20;;;;;;5009275;28;20550;-76
2021/07/22 05:09:45;;;;;;;1.50;1.00;;;17.80;98.20;;;;;;5008248;28;21056;-79
2021/07/22 05:12:12;;;;;;;1.50;1.00;;;17.90;98.20;;;;;;5009953;28;20483;-78
2021/07/22 05:14:38;;;;;;;1.53;1.00;;;18.00;98.20;;;;;;5015566;28;20618;-78
2021/07/22 05:17:05;;;;;;;1.50;1.00;;;18.10;98.20;;;;;;5009849;28;20490;-77
2021/07/22 05:19:32;;;;;;;1.50;1.00;;;18.20;98.20;;;;;;5015363;28;20536;-78
2021/07/22 05:22:00;;;;;;;1.50;0.90;;;18.30;98.20;;;;;;5009496;28;20479;-78
2021/07/22 05:24:27;;;;;;;1.50;0.90;;;18.30;98.20;;;;;;5012839;28;20491;-76
2021/07/22 05:26:54;;;;;;;1.50;0.90;;;18.40;98.20;;;;;;5005824;28;20861;-78
2021/07/22 05:29:21;;;;;;;1.50;1.00;;;18.50;98.20;;;;;;5000780;28;20966;-77
2021/07/22 05:31:48;;;;;;;1.50;0.97;;;18.60;98.20;;;;;;4988648;28;20654;-77
2021/07/22 05:34:14;;;;;;;1.50;0.90;;;18.70;98.20;;;;;;5000315;28;20469;-77
2021/07/22 05:36:41;;;;;;;1.50;0.97;;;18.80;98.10;;;;;;4998784;28;20491;-78
2021/07/22 05:39:11;;;;;;;1.50;0.90;;;18.90;97.80;;;;;;5011565;28;20905;-78
2021/07/22 05:41:38;;;;;;;1.50;0.90;;;19.00;98.10;;;;;;4996514;28;20912;-75
2021/07/22 05:44:05;;;;;;;1.50;0.90;;;19.00;97.50;;;;;;5009397;28;20475;-75
2021/07/22 05:46:32;;;;;;;1.50;0.90;;;19.10;97.50;;;;;;4988768;28;20498;-74
2021/07/22 05:48:59;;;;;;;1.50;0.90;;;19.10;97.30;;;;;;5012390;28;20461;-77
2021/07/22 05:51:26;;;;;;;1.50;0.93;;;19.10;97.30;;;;;;4992682;28;20502;-77
2021/07/22 05:53:53;;;;;;;1.50;0.90;;;19.10;96.90;;;;;;5007859;28;20560;-76
2021/07/22 05:56:21;;;;;;;1.50;1.00;;;19.20;97.10;;;;;;5000395;28;20484;-76
2021/07/22 05:58:50;;;;;;;1.50;0.90;;;19.20;96.70;;;;;;5007703;28;20461;-77
2021/07/22 06:01:18;;;;;;;1.50;1.00;;;19.20;96.40;;;;;;4997153;28;20487;-74
2021/07/22 06:03:45;;;;;;;1.50;0.90;;;19.20;96.40;;;;;;5009953;28;20477;-76
2021/07/22 06:06:11;;;;;;;1.50;0.90;;;19.20;96.40;;;;;;4995307;28;20484;-75
2021/07/22 06:08:38;;;;;;;1.50;0.90;;;19.20;96.80;;;;;;5003100;28;20484;-77
2021/07/22 06:11:06;;;;;;;1.50;0.90;;;19.20;96.60;;;;;;4990071;28;20476;-77
2021/07/22 06:13:34;;;;;;;1.50;0.90;;;19.20;96.60;;;;;;5006178;28;20487;-75
2021/07/22 06:16:01;;;;;;;1.50;1.00;;;19.30;96.50;;;;;;4994251;28;20492;-77
2021/07/22 06:18:28;;;;;;;1.50;0.90;;;19.40;96.40;;;;;;5018899;28;20468;-76
2021/07/22 06:20:55;;;;;;;1.50;0.90;;;19.40;96.10;;;;;;4998276;28;20476;-77
2021/07/22 06:23:22;;;;;;;1.50;0.90;;;19.50;96.10;;;;;;5000010;28;20469;-78
2021/07/22 06:25:49;;;;;;;1.50;0.93;;;19.50;96.30;;;;;;4994412;28;21014;-78
2021/07/22 06:28:16;;;;;;;1.50;0.90;;;19.60;96.50;;;;;;5005035;28;20471;-78
2021/07/22 06:30:44;;;;;;;1.50;0.90;;;19.70;96.60;;;;;;5006406;28;20460;-77
2021/07/22 06:33:11;;;;;;;1.50;0.90;;;19.90;96.70;;;;;;4996627;28;20490;-78
2021/07/22 06:35:37;;;;;;;1.50;0.90;;;20.20;96.70;;;;;;4994792;28;20472;-78
2021/07/22 06:38:04;;;;;;;1.50;0.90;;;20.40;95.30;;;;;;5008240;28;20491;-77
2021/07/22 06:40:31;;;;;;;1.50;0.90;;;20.70;94.40;;;;;;4995935;28;20464;-77
2021/07/22 06:42:58;;;;;;;1.53;0.93;;;20.90;92.90;;;;;;5003276;28;20860;-79
2021/07/22 06:45:24;;;;;;;1.53;0.90;;;21.00;93.30;;;;;;4998650;28;20492;-78
2021/07/22 06:47:52;;;;;;;1.53;0.90;;;21.10;92.50;;;;;;4997315;28;20507;-78
2021/07/22 06:50:19;;;;;;;1.50;0.90;;;21.30;92.80;;;;;;5000374;28;20963;-80
2021/07/22 06:52:46;;;;;;;1.50;0.90;;;21.50;92.00;;;;;;5002380;28;20499;-82
2021/07/22 06:55:13;;;;;;;1.50;0.90;;;21.70;91.10;;;;;;4994708;28;20496;-78
2021/07/22 06:57:40;;;;;;;1.50;0.90;;;21.80;91.50;;;;;;4998456;28;20508;-80
2021/07/22 07:00:07;;;;;;;1.53;0.90;;;22.10;90.80;;;;;;5002521;28;20483;-77
2021/07/22 07:02:34;;;;;;;1.53;0.90;;;22.40;90.30;;;;;;4994514;28;21110;-78
2021/07/22 07:05:02;;;;;;;1.53;0.90;;;22.60;89.60;;;;;;4999494;28;20527;-80
2021/07/22 07:07:29;;;;;;;1.50;0.90;;;22.90;89.30;;;;;;4999751;28;20902;-79
2021/07/22 07:09:56;;;;;;;1.50;0.90;;;23.10;88.80;;;;;;5003121;28;20468;-78
2021/07/22 07:12:23;;;;;;;1.50;0.90;;;23.40;88.00;;;;;;4989660;28;20517;-78
2021/07/22 07:14:50;;;;;;;1.50;0.90;;;23.50;87.50;;;;;;5007107;28;20468;-78
2021/07/22 07:17:17;;;;;;;1.50;0.90;;;23.70;87.20;;;;;;5003479;28;20487;-77
2021/07/22 07:19:44;;;;;;;1.53;0.90;;;23.90;86.40;;;;;;5002785;28;20479;-79
2021/07/22 07:22:12;;;;;;;1.50;0.90;;;24.10;85.60;;;;;;4999333;28;20570;-78
2021/07/22 07:24:39;;;;;;;1.60;1.00;;;24.30;85.40;;;;;;5002823;28;20475;-78
2021/07/22 07:27:06;;;;;;;1.50;0.90;;;24.40;85.00;;;;;;4993876;28;20503;-78
2021/07/22 07:29:32;;;;;;;1.53;0.90;;;24.50;84.90;;;;;;5003367;28;20487;-78
2021/07/22 07:32:00;;;;;;;1.60;0.90;;;24.70;84.80;;;;;;4999034;28;20950;-78
2021/07/22 07:34:26;;;;;;;1.50;0.90;;;24.80;84.80;;;;;;5002907;28;20538;-76
2021/07/22 07:36:53;;;;;;;1.50;1.00;;;25.00;83.40;;;;;;4994938;28;21033;-81
2021/07/22 07:39:22;;;;;;;1.57;0.90;;;25.00;82.80;;;;;;5001335;28;20478;-77
2021/07/22 07:41:48;;;;;;;1.53;0.90;;;24.90;82.80;;;;;;4992922;28;20959;-78
2021/07/22 07:44:15;;;;;;;1.57;0.90;;;25.00;83.00;;;;;;5004171;28;20464;-77
2021/07/22 07:46:42;;;;;;;1.50;0.80;;;25.20;81.90;;;;;;4983805;28;21095;-77
2021/07/22 07:49:09;;;;;;;1.50;0.80;;;25.40;81.80;;;;;;4998151;28;20469;-77
2021/07/22 07:51:36;;;;;;;1.50;0.90;;;25.60;81.40;;;;;;4993957;28;20519;-77
2021/07/22 07:54:02;;;;;;;1.57;0.87;;;25.90;81.20;;;;;;5009299;28;20484;-78
2021/07/22 07:56:31;;;;;;;1.50;0.80;;;26.00;80.50;;;;;;4996541;28;20638;-77
2021/07/22 07:58:57;;;;;;;1.50;0.80;;;26.10;80.60;;;;;;5006602;28;21072;-76
2021/07/22 08:01:27;;;;;;;1.50;0.80;;;26.10;80.10;;;;;;4991889;28;20847;-78
2021/07/22 08:03:54;;;;;;;1.50;0.90;;;26.10;79.70;;;;;;5006036;28;20464;-77
2021/07/22 08:06:20;;;;;;;1.50;0.90;;;26.20;80.50;;;;;;4995666;28;20487;-77
2021/07/22 08:08:47;;;;;;;1.50;0.87;;;26.30;79.60;;;;;;5004202;28;20944;-77
2021/07/22 08:11:14;;;;;;;1.50;0.90;;;26.30;79.40;;;;;;4986564;28;20488;-77
2021/07/22 08:13:42;;;;;;;1.50;0.80;;;26.30;79.20;;;;;;5007899;28;20559;-77
2021/07/22 08:16:14;;;;;;;1.50;0.90;;;26.30;80.10;;;;;;4992510;28;20475;-77
2021/07/22 08:18:41;;;;;;;1.50;0.90;;;26.30;80.40;;;;;;5008319;28;20552;-77
2021/07/22 08:21:08;;;;;;;1.50;0.90;;;26.30;80.20;;;;;;4986663;28;20479;-78
2021/07/22 08:23:34;;;;;;;1.50;0.90;;;26.10;80.80;;;;;;5005997;28;20478;-77
2021/07/22 08:26:01;;;;;;;1.50;0.87;;;26.10;80.30;;;;;;4986459;28;21022;-77
2021/07/22 08:28:28;;;;;;;1.50;0.80;;;26.10;80.80;;;;;;5008164;28;20467;-77
2021/07/22 08:30:56;;;;;;;1.50;0.90;;;26.20;80.30;;;;;;4993378;28;20467;-77
2021/07/22 08:33:23;;;;;;;1.50;0.80;;;26.30;79.90;;;;;;5006368;28;20472;-77
2021/07/22 08:35:50;;;;;;;1.50;0.90;;;26.30;79.10;;;;;;4992891;28;20530;-77
2021/07/22 08:38:16;;;;;;;1.50;0.80;;;26.40;80.10;;;;;;5012678;28;20495;-78
2021/07/22 08:40:43;;;;;;;1.57;1.00;;;26.60;80.40;;;;;;5009169;28;20486;-77
2021/07/22 08:43:11;;;;;;;1.50;0.83;;;26.80;80.60;;;;;;4997598;28;20494;-78
2021/07/22 08:45:38;;;;;;;1.50;0.80;;;27.00;78.90;;;;;;5009264;28;20864;-77
2021/07/22 08:48:06;;;;;;;1.50;0.80;;;27.10;78.70;;;;;;4997626;28;20478;-77
2021/07/22 08:50:33;;;;;;;1.50;0.80;;;27.30;78.40;;;;;;5008514;28;20471;-78
2021/07/22 08:53:00;;;;;;;1.50;0.90;;;27.50;77.10;;;;;;5004695;28;20489;-76
2021/07/22 08:55:27;;;;;;;1.50;0.90;;;27.50;77.70;;;;;;5001437;28;20468;-77
2021/07/22 08:57:56;;;;;;;1.50;0.87;;;27.50;77.30;;;;;;5007751;28;20483;-77
2021/07/22 09:00:24;;;;;;;1.50;0.80;;;27.50;77.00;;;;;;5000338;28;20467;-77
2021/07/22 09:02:53;;;;;;;1.50;0.80;;;27.50;76.90;;;;;;5003822;28;20478;-77
2021/07/22 09:05:27;;;;;;;1.50;0.90;;;27.70;76.80;;;;;;4996198;28;20487;-77
2021/07/22 09:07:53;;;;;;;1.50;0.83;;;27.90;76.60;;;;;;5009242;28;20478;-78
2021/07/22 09:10:21;;;;;;;1.50;0.90;;;28.00;77.10;;;;;;5002191;28;20467;-77
2021/07/22 09:12:49;;;;;;;1.50;0.80;;;28.20;76.90;;;;;;5005702;28;20479;-77
2021/07/22 09:15:23;;;;;;;1.50;0.80;;;28.40;76.60;;;;;;5001707;28;20467;-77
2021/07/22 09:17:50;;;;;;;1.50;0.80;;;28.50;74.40;;;;;;5006435;28;20510;-77
2021/07/22 09:20:31;;;;;;;1.50;0.80;;;28.60;75.30;;;;;;5004847;28;20471;-77
2021/07/22 09:22:59;;;;;;;2.00;1.23;;;28.70;75.00;;;;;;5008056;28;20567;-77
2021/07/22 09:25:41;;;;;;;1.50;0.80;;;28.70;72.80;;;;;;5000712;28;20502;-78
2021/07/22 09:28:07;;;;;;;1.50;0.80;;;28.80;74.30;;;;;;5000716;28;20484;-78
2021/07/22 09:30:35;;;;;;;1.67;1.50;;;28.90;73.90;;;;;;5006207;28;20868;-78
2021/07/22 09:33:03;;;;;;;1.50;0.80;;;29.00;71.60;;;;;;4997899;28;20571;-77
2021/07/22 09:35:35;;;;;;;1.47;0.80;;;29.20;74.10;;;;;;5001940;28;20467;-77
2021/07/22 09:38:10;;;;;;;1.47;0.80;;;29.30;72.80;;;;;;4997978;28;20854;-77
2021/07/22 09:40:38;;;;;;;1.50;0.80;;;29.40;71.70;;;;;;5002237;28;20473;-77
2021/07/22 09:43:05;;;;;;;1.47;0.80;;;29.60;71.70;;;;;;4995069;28;20485;-78
2021/07/22 09:45:35;;;;;;;1.50;0.80;;;29.80;70.30;;;;;;5004494;28;20495;-78
2021/07/22 09:48:12;;;;;;;1.43;0.80;;;29.90;70.00;;;;;;4994950;28;20483;-78
2021/07/22 09:50:45;;;;;;;1.50;0.90;;;29.90;68.10;;;;;;4996286;28;20474;-77
2021/07/22 09:53:12;;;;;;;1.47;0.80;;;30.00;69.60;;;;;;5001964;28;20484;-78
2021/07/22 09:55:40;;;;;;;1.50;0.80;;;30.20;68.90;;;;;;5009670;28;20475;-77
2021/07/22 09:58:09;;;;;;;1.50;0.80;;;30.30;67.90;;;;;;5006116;28;20495;-77
2021/07/22 10:00:40;;;;;;;1.50;0.80;;;30.40;67.90;;;;;;5009696;28;20470;-78
2021/07/22 10:03:10;;;;;;;1.50;0.80;;;30.70;66.10;;;;;;4996993;28;20600;-78
2021/07/22 10:05:40;;;;;;;1.50;0.87;;;30.70;65.60;;;;;;5005151;28;21211;-77
2021/07/22 10:08:09;;;;;;;1.50;0.80;;;30.80;67.30;;;;;;5014119;28;20483;-78
2021/07/22 10:10:38;;;;;;;1.50;0.80;;;31.10;66.90;;;;;;5004478;28;20220;-80
2021/07/22 10:13:06;;;;;;;1.50;0.80;;;31.30;65.90;;;;;;5008381;28;20227;-78
2021/07/22 10:15:36;;;;;;;1.50;0.80;;;31.40;66.70;;;;;;5003892;28;20260;-78
2021/07/22 10:18:05;;;;;;;1.50;0.90;;;31.20;65.40;;;;;;5008327;28;20311;-79
2021/07/22 10:20:33;;;;;;;1.47;0.83;;;31.10;67.60;;;;;;4997640;28;20501;-78
2021/07/22 10:23:01;;;;;;;1.47;0.80;;;31.10;66.50;;;;;;4997260;28;20225;-78
2021/07/22 10:25:31;;;;;;;1.47;0.80;;;31.20;66.50;;;;;;4997132;28;20232;-77
2021/07/22 10:27:58;;;;;;;1.47;0.80;;;31.30;65.30;;;;;;5009049;28;20228;-77
2021/07/22 10:30:26;;;;;;;1.47;0.80;;;31.30;65.60;;;;;;4998048;28;20216;-78
2021/07/22 10:32:55;;;;;;;1.43;0.80;;;31.30;65.20;;;;;;5008861;28;20224;-78
2021/07/22 10:35:23;;;;;;;1.43;0.90;;;31.40;65.80;;;;;;5004662;28;20217;-77
2021/07/22 10:38:07;;;;;;;1.50;0.80;;;31.50;66.10;;;;;;5006038;28;20236;-77
2021/07/22 10:40:52;;;;;;;1.63;1.20;;;31.50;65.40;;;;;;5001463;28;20204;-78
2021/07/22 10:43:39;;;;;;;1.47;0.80;;;31.50;65.50;;;;;;4983422;28;20224;-77
2021/07/22 10:46:07;;;;;;;1.47;0.80;;;31.50;63.00;;;;;;4985963;28;20459;-78
2021/07/22 10:48:34;;;;;;;1.47;0.80;;;31.50;64.60;;;;;;5012620;28;20201;-79
2021/07/22 10:51:06;;;;;;;1.47;0.80;;;31.50;63.90;;;;;;4995003;28;20289;-77
2021/07/22 10:53:51;;;;;;;1.50;0.80;;;31.60;65.00;;;;;;5008535;28;20215;-78
2021/07/22 10:56:35;;;;;;;1.47;0.80;;;31.60;65.70;;;;;;4998365;28;20815;-77
2021/07/22 10:59:01;;;;;;;1.47;0.80;;;31.40;65.40;;;;;;4998350;28;20204;-77
2021/07/22 11:01:51;;;;;;;1.43;0.80;;;31.40;65.00;;;;;;4995079;28;20316;-76
2021/07/22 11:04:46;;;;;;;1.43;0.80;;;31.20;64.70;;;;;;5004188;28;20240;-78
2021/07/22 11:07:23;;;;;;;1.47;0.80;;;31.20;65.60;;;;;;4992932;28;20554;-77
2021/07/22 11:09:58;;;;;;;1.50;0.80;;;31.30;65.50;;;;;;5007446;28;20271;-77
2021/07/22 11:12:47;;;;;;;1.50;0.80;;;31.30;65.90;;;;;;5000742;28;20231;-77
2021/07/22 11:15:33;;;;;;;1.50;0.80;;;31.00;65.80;;;;;;5004579;28;20551;-78
2021/07/22 11:17:59;;;;;;;1.50;0.80;;;30.90;64.40;;;;;;4982050;28;20229;-78
2021/07/22 11:20:33;;;;;;;1.47;0.80;;;31.00;66.90;;;;;;4995993;28;20205;-78
2021/07/22 11:23:15;;;;;;;1.50;0.80;;;31.20;65.90;;;;;;5005447;28;20234;-77
2021/07/22 11:25:44;;;;;;;1.50;0.90;;;31.40;64.40;;;;;;5002574;28;20224;-77
2021/07/22 11:28:13;;;;;;;1.47;0.80;;;31.40;65.80;;;;;;4998296;28;20224;-77
2021/07/22 11:30:39;;;;;;;1.40;0.80;;;31.40;65.00;;;;;;5000676;28;20599;-78
2021/07/22 11:33:16;;;;;;;1.50;1.20;;;31.30;66.00;;;;;;5009757;28;20231;-78
2021/07/22 11:35:42;;;;;;;1.43;0.80;;;31.10;65.30;;;;;;5004665;28;21953;-77
2021/07/22 11:38:09;;;;;;;1.47;0.80;;;31.00;66.40;;;;;;5007633;28;20480;-75
2021/07/22 11:40:37;;;;;;;1.43;0.80;;;31.00;66.50;;;;;;5004853;28;20486;-76
2021/07/22 11:43:04;;;;;;;1.47;0.80;;;30.90;68.60;;;;;;5005958;28;20494;-76
2021/07/22 11:45:42;;;;;;;1.43;0.80;;;31.10;65.70;;;;;;4997586;28;20534;-77
2021/07/22 11:48:23;;;;;;;1.50;0.93;;;31.10;65.10;;;;;;4987957;28;20842;-78
2021/07/22 11:50:59;;;;;;;1.47;0.80;;;31.20;64.50;;;;;;4994623;28;20208;-77
2021/07/22 11:53:26;;;;;;;1.47;0.80;;;31.30;65.10;;;;;;5009394;28;20212;-78
2021/07/22 11:55:53;;;;;;;1.47;0.80;;;31.10;64.60;;;;;;4993839;28;20235;-76
2021/07/22 11:58:20;;;;;;;1.47;0.80;;;30.80;64.90;;;;;;5010991;28;20471;-77
2021/07/22 12:00:48;;;;;;;1.50;0.90;;;30.40;65.10;;;;;;5000363;28;20471;-77
2021/07/22 12:03:15;;;;;;;1.47;0.80;;;30.20;65.80;;;;;;5005492;28;21088;-76
2021/07/22 12:05:42;;;;;;;1.47;0.90;;;30.10;67.20;;;;;;4996500;28;20471;-77
2021/07/22 12:08:16;;;;;;;1.50;0.80;;;29.90;65.70;;;;;;4999995;28;20490;-76
2021/07/22 12:10:43;;;;;;;1.50;0.93;;;30.00;68.10;;;;;;5009635;28;20520;-77
2021/07/22 12:13:12;;;;;;;1.43;0.80;;;30.20;66.20;;;;;;5018492;28;20483;-75
2021/07/22 12:15:39;;;;;;;1.50;0.80;;;30.20;66.40;;;;;;5009001;28;20860;-76
2021/07/22 12:18:09;;;;;;;1.47;0.80;;;30.40;65.90;;;;;;5000021;28;20474;-77
2021/07/22 12:20:37;;;;;;;1.50;0.90;;;30.70;65.60;;;;;;5009045;28;20463;-76
2021/07/22 12:23:29;;;;;;;1.47;0.80;;;31.10;65.50;;;;;;4998633;28;20996;-77
2021/07/22 12:26:00;;;;;;;1.43;0.80;;;31.40;64.00;;;;;;4996499;28;20494;-75
2021/07/22 12:28:27;;;;;;;1.43;0.80;;;31.60;64.10;;;;;;5015086;28;20283;-75
2021/07/22 12:30:54;;;;;;;1.43;0.80;;;31.80;62.90;;;;;;4994117;28;20201;-77
2021/07/22 12:33:27;;;;;;;1.50;0.90;;;32.00;63.20;;;;;;5004536;28;20500;-76
2021/07/22 12:35:55;;;;;;;1.43;0.80;;;32.10;62.60;;;;;;4994346;28;20225;-75
2021/07/22 12:38:27;;;;;;;1.50;0.80;;;32.10;62.70;;;;;;5003343;28;20283;-77
2021/07/22 12:41:07;;;;;;;1.43;0.80;;;32.10;62.60;;;;;;4989927;28;20585;-76
2021/07/22 12:43:51;;;;;;;1.50;0.83;;;31.90;62.70;;;;;;5012639;28;20982;-76
2021/07/22 12:46:19;;;;;;;1.50;0.80;;;31.40;63.60;;;;;;4994998;28;20478;-77
2021/07/22 12:48:48;;;;;;;1.47;0.80;;;31.00;63.70;;;;;;5018525;28;20522;-78
2021/07/22 12:51:16;;;;;;;1.47;0.80;;;30.80;64.80;;;;;;4997629;28;20524;-76
2021/07/22 12:53:44;;;;;;;1.60;1.20;;;30.60;65.10;;;;;;5016633;28;20204;-77
2021/07/22 12:56:11;;;;;;;1.43;0.80;;;30.60;66.00;;;;;;4985374;28;20546;-77
2021/07/22 12:58:42;;;;;;;1.47;0.80;;;30.70;65.70;;;;;;5003567;28;20467;-80